createdAt,value
2018-12-24T00:00:26.836Z,100005.74
2018-12-24T00:02:53.633Z,100013.44
2018-12-24T00:05:20.367Z,100003.80
2018-12-24T00:07:47.132Z,100041.19
2018-12-24T00:10:13.880Z,100022.09
2018-12-24T00:12:40.634Z,100005.80
2018-12-24T00:15:07.534Z,99985.87
2018-12-24T00:17:34.283Z,99992.69
2018-12-24T00:20:01.025Z,99997.94
2018-12-24T00:22:27.768Z,99977.36
2018-12-24T00:24:54.500Z,99987.16
2018-12-24T00:27:21.252Z,99996.47
2018-12-24T00:29:47.988Z,99990.24
2018-12-24T00:32:14.743Z,99984.53
2018-12-24T00:34:41.480Z,100000.53
2018-12-24T00:37:08.236Z,100009.84
2018-12-24T00:39:34.968Z,100006.09
2018-12-24T00:42:01.697Z,100009.67
2018-12-24T00:44:28.453Z,100005.76
2018-12-24T00:46:55.201Z,100003.14
2018-12-24T00:49:21.953Z,99999.88
2018-12-24T00:51:48.718Z,99993.20
2018-12-24T00:54:15.472Z,100004.96
2018-12-24T00:56:42.209Z,100003.48
2018-12-24T00:59:08.980Z,100017.86
2018-12-24T01:01:35.716Z,100025.68
2018-12-24T01:04:02.480Z,100033.51
2018-12-24T01:06:29.215Z,100053.43
2018-12-24T01:08:55.970Z,100046.73
2018-12-24T01:11:22.712Z,100035.80
2018-12-24T01:13:49.528Z,100050.66
2018-12-24T01:16:16.314Z,100059.97
2018-12-24T01:18:43.066Z,100079.05
2018-12-24T01:21:09.833Z,100089.80
2018-12-24T01:23:36.588Z,100101.06
2018-12-24T01:26:03.341Z,100107.25
2018-12-24T01:28:30.092Z,100116.06
2018-12-24T01:30:56.833Z,100135.31
2018-12-24T01:33:23.596Z,100154.85
2018-12-24T01:35:50.332Z,100230.95
2018-12-24T01:38:17.084Z,100261.14
2018-12-24T01:40:43.827Z,100267.44
2018-12-24T01:43:10.593Z,100248.33
2018-12-24T01:45:37.331Z,100254.30
2018-12-24T01:48:04.102Z,100281.52
2018-12-24T01:50:30.853Z,100267.32
2018-12-24T01:52:57.603Z,100281.03
2018-12-24T01:55:24.385Z,100277.76
2018-12-24T01:57:51.132Z,100275.59
2018-12-24T02:00:17.876Z,100294.02
2018-12-24T02:02:44.616Z,100303.06
2018-12-24T02:05:11.393Z,100314.61
2018-12-24T02:07:38.132Z,100327.73
2018-12-24T02:10:04.929Z,100330.19
2018-12-24T02:12:31.665Z,100332.51
2018-12-24T02:14:58.412Z,100330.59
2018-12-24T02:17:25.151Z,100336.33
2018-12-24T02:19:51.897Z,100353.30
2018-12-24T02:22:18.630Z,100348.63
2018-12-24T02:24:45.376Z,100354.17
2018-12-24T02:27:12.110Z,100374.42
2018-12-24T02:29:38.872Z,100369.61
2018-12-24T02:32:05.604Z,100380.70
2018-12-24T02:34:32.356Z,100389.77
2018-12-24T02:36:59.097Z,100373.30
2018-12-24T02:39:25.886Z,100388.66
2018-12-24T02:41:52.612Z,100387.19
2018-12-24T02:44:19.370Z,100410.30
2018-12-24T02:46:46.125Z,100408.94
2018-12-24T02:49:12.874Z,100413.82
2018-12-24T02:51:39.623Z,100429.41
2018-12-24T02:54:06.385Z,100442.95
2018-12-24T02:56:33.125Z,100438.36
2018-12-24T02:58:59.880Z,100448.20
2018-12-24T03:01:26.634Z,100452.43
2018-12-24T03:03:53.372Z,100475.15
2018-12-24T03:06:20.128Z,100487.16
2018-12-24T03:08:46.882Z,100491.35
2018-12-24T03:11:13.630Z,100484.44
2018-12-24T03:13:40.361Z,100505.14
2018-12-24T03:16:07.131Z,100507.11
2018-12-24T03:18:33.872Z,100511.25
2018-12-24T03:21:00.621Z,100520.46
2018-12-24T03:23:27.364Z,100519.98
2018-12-24T03:25:54.112Z,100544.45
2018-12-24T03:28:20.870Z,100557.62
2018-12-24T03:30:47.630Z,100554.82
2018-12-24T03:33:14.402Z,100569.02
2018-12-24T03:35:41.168Z,100581.16
2018-12-24T03:38:07.912Z,100587.52
2018-12-24T03:40:34.660Z,100582.34
2018-12-24T03:43:01.400Z,100604.98
2018-12-24T03:45:28.167Z,100606.06
2018-12-24T03:47:54.897Z,100616.07
2018-12-24T03:50:21.669Z,100614.41
2018-12-24T03:52:48.645Z,100598.78
2018-12-24T03:55:15.412Z,100595.95
2018-12-24T03:57:42.160Z,100611.00
2018-12-24T04:00:08.932Z,100610.30
2018-12-24T04:02:35.685Z,100635.01
2018-12-24T04:05:02.463Z,100655.62
2018-12-24T04:07:29.200Z,100665.48
2018-12-24T04:09:55.956Z,100679.72
2018-12-24T04:12:22.712Z,100662.89
2018-12-24T04:14:49.467Z,100677.95
2018-12-24T04:17:16.229Z,100691.02
2018-12-24T04:19:42.978Z,100711.93
2018-12-24T04:22:09.733Z,100721.49
2018-12-24T04:24:36.515Z,100733.73
2018-12-24T04:27:03.253Z,100739.11
2018-12-24T04:29:29.992Z,100717.34
2018-12-24T04:31:56.880Z,100720.27
2018-12-24T04:34:23.679Z,100729.45
2018-12-24T04:36:50.412Z,100743.80
2018-12-24T04:39:17.169Z,100739.22
2018-12-24T04:41:43.924Z,100757.80
2018-12-24T04:44:10.670Z,100767.80
2018-12-24T04:46:37.466Z,100773.80
2018-12-24T04:49:04.223Z,100778.55
2018-12-24T04:51:31.010Z,100786.87
2018-12-24T04:53:57.750Z,100810.37
2018-12-24T04:56:24.515Z,100818.66
2018-12-24T04:58:51.260Z,100833.83
2018-12-24T05:01:18.026Z,100839.47
2018-12-24T05:03:44.752Z,100830.79
2018-12-24T05:06:11.526Z,100849.35
2018-12-24T05:08:38.280Z,100852.72
2018-12-24T05:11:05.037Z,100855.30
2018-12-24T05:13:31.793Z,100863.19
2018-12-24T05:15:58.629Z,100869.58
2018-12-24T05:18:25.392Z,100867.16
2018-12-24T05:20:52.157Z,100858.70
2018-12-24T05:23:18.910Z,100876.98
2018-12-24T05:25:45.657Z,100857.30
2018-12-24T05:28:12.416Z,100879.25
2018-12-24T05:30:39.157Z,100886.39
2018-12-24T05:33:05.916Z,100897.48
2018-12-24T05:35:32.668Z,100908.90
2018-12-24T05:37:59.424Z,100908.54
2018-12-24T05:40:26.160Z,100925.03
2018-12-24T05:42:52.940Z,100946.23
2018-12-24T05:45:19.694Z,100966.02
2018-12-24T05:47:46.495Z,100977.47
2018-12-24T05:50:13.237Z,100985.95
2018-12-24T05:52:40.013Z,100989.22
2018-12-24T05:55:06.791Z,100996.63
2018-12-24T05:57:33.567Z,101010.05
2018-12-24T06:00:00.304Z,101020.27
2018-12-24T06:02:27.152Z,101040.64
2018-12-24T06:04:53.898Z,101045.88
2018-12-24T06:07:20.721Z,101049.55
2018-12-24T06:09:47.464Z,101061.88
2018-12-24T06:12:14.308Z,101072.95
2018-12-24T06:14:41.259Z,101082.52
2018-12-24T06:17:08.049Z,101096.68
2018-12-24T06:19:34.904Z,101102.14
2018-12-24T06:22:01.674Z,101102.86
2018-12-24T06:24:28.413Z,101110.52
2018-12-24T06:26:55.184Z,101128.44
2018-12-24T06:29:21.925Z,101133.75
2018-12-24T06:31:48.782Z,101141.97
2018-12-24T06:34:15.537Z,101154.42
2018-12-24T06:36:42.288Z,101167.00
2018-12-24T06:39:09.044Z,101171.05
2018-12-24T06:41:35.780Z,101174.80
2018-12-24T06:44:06.741Z,101183.05
2018-12-24T06:46:29.311Z,101195.91
2018-12-24T06:48:56.073Z,101202.02
2018-12-24T06:51:22.916Z,101200.81
2018-12-24T06:53:49.596Z,101218.83
2018-12-24T06:56:16.351Z,101226.01
2018-12-24T06:58:43.105Z,101228.55
2018-12-24T07:01:09.849Z,101239.66
2018-12-24T07:03:36.616Z,101244.30
2018-12-24T07:06:03.365Z,101241.14
2018-12-24T07:08:30.142Z,101248.61
2018-12-24T07:10:56.892Z,101258.25
2018-12-24T07:13:23.663Z,101260.84
2018-12-24T07:15:50.400Z,101259.98
2018-12-24T07:18:17.169Z,101273.08
2018-12-24T07:20:43.908Z,101282.52
2018-12-24T07:23:10.696Z,101283.23
2018-12-24T07:25:37.450Z,101283.44
2018-12-24T07:28:04.216Z,101292.88
2018-12-24T07:30:30.985Z,101290.37
2018-12-24T07:32:57.749Z,101304.59
2018-12-24T07:35:24.497Z,101303.05
2018-12-24T07:37:51.364Z,101306.27
2018-12-24T07:40:18.104Z,101301.50
2018-12-24T07:42:44.889Z,101310.61
2018-12-24T07:45:11.814Z,101314.42
2018-12-24T07:47:38.504Z,101318.28
2018-12-24T07:50:05.316Z,101319.91
2018-12-24T07:52:32.080Z,101328.36
2018-12-24T07:54:58.820Z,101333.81
2018-12-24T07:57:25.565Z,101338.05
2018-12-24T07:59:52.345Z,101340.77
2018-12-24T08:02:19.111Z,101351.52
2018-12-24T08:04:45.845Z,101355.17
2018-12-24T08:07:12.665Z,101357.70
2018-12-24T08:09:39.409Z,101362.27
2018-12-24T08:12:06.196Z,101362.09
2018-12-24T08:14:33.469Z,101368.44
2018-12-24T08:16:59.689Z,101376.81
2018-12-24T08:19:26.428Z,101381.89
2018-12-24T08:21:53.197Z,101391.80
2018-12-24T08:24:20.032Z,101393.44
2018-12-24T08:26:46.680Z,101393.31
2018-12-24T08:29:13.445Z,101409.25
2018-12-24T08:31:40.212Z,101401.75
2018-12-24T08:34:07.044Z,101396.52
2018-12-24T08:36:33.814Z,101394.08
2018-12-24T08:39:00.569Z,101397.55
2018-12-24T08:41:27.329Z,101398.53
2018-12-24T08:43:54.090Z,101400.75
2018-12-24T08:46:20.971Z,101404.48
2018-12-24T08:48:47.743Z,101404.97
2018-12-24T08:51:14.538Z,101416.98
2018-12-24T08:53:41.312Z,101420.33
2018-12-24T08:56:08.057Z,101419.13
2018-12-24T08:58:34.848Z,101418.25
2018-12-24T09:01:01.580Z,101423.13
2018-12-24T09:03:28.342Z,101428.73
2018-12-24T09:05:55.143Z,101429.50
2018-12-24T09:08:21.924Z,101438.41
2018-12-24T09:10:48.788Z,101442.91
2018-12-24T09:13:15.556Z,101446.50
2018-12-24T09:15:42.295Z,101463.20
2018-12-24T09:18:09.117Z,101465.09
2018-12-24T09:20:35.932Z,101468.81
2018-12-24T09:23:02.696Z,101469.64
2018-12-24T09:25:29.447Z,101475.09
2018-12-24T09:27:56.292Z,101478.99
2018-12-24T09:30:23.308Z,101484.43
2018-12-24T09:32:50.048Z,101481.52
2018-12-24T09:35:16.812Z,101487.44
2018-12-24T09:37:43.580Z,101485.17
2018-12-24T09:40:12.717Z,101491.31
2018-12-24T09:42:39.477Z,101490.33
2018-12-24T09:45:06.316Z,101499.03
2018-12-24T09:47:33.148Z,101499.27
2018-12-24T09:49:59.908Z,101505.20
2018-12-24T09:52:26.744Z,101504.44
2018-12-24T09:54:53.522Z,101506.84
2018-12-24T09:57:20.312Z,101507.79
2018-12-24T09:59:47.076Z,101507.86
2018-12-24T10:02:13.877Z,101506.31
2018-12-24T10:04:47.376Z,101512.83
2018-12-24T10:07:37.096Z,101531.06
2018-12-24T10:10:09.529Z,101528.83
2018-12-24T10:12:36.261Z,101523.27
2018-12-24T10:15:07.986Z,101526.90
2018-12-24T10:17:29.827Z,101527.16
2018-12-24T10:19:56.599Z,101527.63
2018-12-24T10:22:23.337Z,101525.82
2018-12-24T10:24:50.218Z,101530.44
2018-12-24T10:27:17.025Z,101524.48
2018-12-24T10:29:43.941Z,101533.23
2018-12-24T10:32:10.717Z,101528.73
2018-12-24T10:34:37.620Z,101537.48
2018-12-24T10:37:04.361Z,101529.09
2018-12-24T10:39:31.128Z,101530.78
2018-12-24T10:41:57.880Z,101535.62
2018-12-24T10:44:24.640Z,101539.20
2018-12-24T10:46:51.417Z,101539.77
2018-12-24T10:49:18.168Z,101540.87
2018-12-24T10:51:44.948Z,101550.49
2018-12-24T10:54:11.760Z,101543.25
2018-12-24T10:56:39.874Z,101545.48
2018-12-24T10:59:05.299Z,101535.06
2018-12-24T11:01:32.079Z,101542.16
2018-12-24T11:03:58.849Z,101536.36
2018-12-24T11:06:25.611Z,101542.31
2018-12-24T11:08:52.453Z,101548.49
2018-12-24T11:11:19.280Z,101546.31
2018-12-24T11:13:46.049Z,101544.34
2018-12-24T11:16:12.911Z,101554.23
2018-12-24T11:18:39.648Z,101556.56
2018-12-24T11:21:06.422Z,101559.32
2018-12-24T11:23:33.292Z,101555.06
2018-12-24T11:26:00.057Z,101567.62
2018-12-24T11:28:26.788Z,101568.97
2018-12-24T11:30:53.660Z,101568.55
2018-12-24T11:33:20.401Z,101571.09
2018-12-24T11:35:47.181Z,101567.30
2018-12-24T11:38:13.966Z,101572.23
2018-12-24T11:40:40.780Z,101573.27
2018-12-24T11:43:07.536Z,101570.14
2018-12-24T11:45:36.057Z,101577.42
2018-12-24T11:48:01.176Z,101579.11
2018-12-24T11:50:27.984Z,101576.02
2018-12-24T11:52:54.794Z,101570.26
2018-12-24T11:55:21.641Z,101574.92
2018-12-24T11:57:48.387Z,101589.24
2018-12-24T12:00:15.160Z,101592.09
2018-12-24T12:02:41.941Z,101599.41
2018-12-24T12:05:08.690Z,101587.11
2018-12-24T12:07:35.456Z,101589.25
2018-12-24T12:10:02.268Z,101595.05
2018-12-24T12:12:29.133Z,101591.25
2018-12-24T12:14:55.890Z,101595.98
2018-12-24T12:17:22.651Z,101598.48
2018-12-24T12:19:49.420Z,101599.82
2018-12-24T12:22:16.288Z,101592.63
2018-12-24T12:24:43.135Z,101587.62
2018-12-24T12:27:09.896Z,101594.01
2018-12-24T12:29:36.747Z,101604.14
2018-12-24T12:32:03.579Z,101592.04
2018-12-24T12:34:30.325Z,101601.48
2018-12-24T12:36:57.098Z,101607.70
2018-12-24T12:39:23.913Z,101619.02
2018-12-24T12:41:50.721Z,101615.95
2018-12-24T12:44:17.464Z,101622.18
2018-12-24T12:46:44.264Z,101621.63
2018-12-24T12:49:11.045Z,101626.89
2018-12-24T12:51:37.805Z,101631.88
2018-12-24T12:54:04.533Z,101619.73
2018-12-24T12:56:31.288Z,101631.20
2018-12-24T12:58:58.100Z,101635.09
2018-12-24T13:01:24.853Z,101648.27
2018-12-24T13:03:51.588Z,101652.00
2018-12-24T13:06:18.376Z,101658.56
2018-12-24T13:08:45.113Z,101673.73
2018-12-24T13:11:11.988Z,101676.55
2018-12-24T13:13:38.728Z,101687.55
2018-12-24T13:16:05.509Z,101688.86
2018-12-24T13:18:32.512Z,101687.86
2018-12-24T13:20:59.273Z,101688.95
2018-12-24T13:23:26.133Z,101692.83
2018-12-24T13:25:52.877Z,101692.48
2018-12-24T13:28:19.647Z,101699.07
2018-12-24T13:30:46.433Z,101702.72
2018-12-24T13:33:13.202Z,101709.98
2018-12-24T13:35:39.990Z,101698.50
2018-12-24T13:38:06.758Z,101694.13
2018-12-24T13:40:33.621Z,101701.20
2018-12-24T13:43:00.380Z,101694.56
2018-12-24T13:45:27.124Z,101693.86
2018-12-24T13:47:53.938Z,101698.91
2018-12-24T13:50:20.685Z,101699.06
2018-12-24T13:52:47.488Z,101714.70
2018-12-24T13:55:14.260Z,101715.67
2018-12-24T13:57:41.021Z,101714.27
2018-12-24T14:00:07.768Z,101709.81
2018-12-24T14:02:34.572Z,101714.69
2018-12-24T14:05:01.367Z,101722.69
2018-12-24T14:07:28.094Z,101733.22
2018-12-24T14:09:54.924Z,101734.03
2018-12-24T14:12:21.694Z,101737.16
2018-12-24T14:14:48.456Z,101747.44
2018-12-24T14:17:15.333Z,101745.14
2018-12-24T14:19:42.161Z,101742.66
2018-12-24T14:22:08.917Z,101741.45
2018-12-24T14:24:35.877Z,101735.39
2018-12-24T14:27:02.635Z,101737.88
2018-12-24T14:29:29.433Z,101741.75
2018-12-24T14:31:56.169Z,101749.16
2018-12-24T14:34:22.931Z,101755.23
2018-12-24T14:36:49.741Z,101755.70
2018-12-24T14:39:16.516Z,101760.33
2018-12-24T14:41:43.328Z,101761.56
2018-12-24T14:44:10.085Z,101771.91
2018-12-24T14:46:36.907Z,101772.63
2018-12-24T14:49:03.676Z,101777.31
2018-12-24T14:51:30.488Z,101780.98
2018-12-24T14:53:57.252Z,101782.87
2018-12-24T14:56:24.068Z,101781.44
2018-12-24T14:58:51.084Z,101796.45
2018-12-24T15:01:17.861Z,101803.58
2018-12-24T15:03:44.661Z,101796.61
2018-12-24T15:06:11.554Z,101803.27
2018-12-24T15:08:38.396Z,101803.53
2018-12-24T15:11:05.152Z,101799.50
2018-12-24T15:13:31.914Z,101807.48
2018-12-24T15:15:58.652Z,101809.59
2018-12-24T15:18:25.457Z,101815.07
2018-12-24T15:20:52.220Z,101813.75
2018-12-24T15:23:19.060Z,101816.25
2018-12-24T15:25:45.864Z,101819.46
2018-12-24T15:28:12.729Z,101821.78
2018-12-24T15:30:39.552Z,101822.55
2018-12-24T15:33:06.416Z,101830.80
2018-12-24T15:35:33.156Z,101833.27
2018-12-24T15:38:00.012Z,101830.30
2018-12-24T15:40:26.776Z,101837.97
2018-12-24T15:42:53.572Z,101839.56
2018-12-24T15:45:20.332Z,101843.14
2018-12-24T15:47:47.088Z,101849.14
2018-12-24T15:50:13.929Z,101842.77
2018-12-24T15:52:40.676Z,101845.34
2018-12-24T15:55:07.448Z,101851.05
2018-12-24T15:57:34.304Z,101851.27
2018-12-24T16:00:01.080Z,101857.03
2018-12-24T16:02:27.820Z,101861.77
2018-12-24T16:04:54.654Z,101860.69
2018-12-24T16:07:21.405Z,101858.72
2018-12-24T16:09:48.192Z,101862.39
2018-12-24T16:12:14.986Z,101867.37
2018-12-24T16:14:41.832Z,101873.45
2018-12-24T16:17:08.613Z,101873.96
2018-12-24T16:19:35.381Z,101880.08
2018-12-24T16:22:02.128Z,101882.04
2018-12-24T16:24:28.896Z,101881.66
2018-12-24T16:26:55.636Z,101887.67
2018-12-24T16:29:22.412Z,101888.66
2018-12-24T16:31:49.149Z,101895.13
2018-12-24T16:34:15.918Z,101894.00
2018-12-24T16:36:42.667Z,101899.31
2018-12-24T16:39:09.456Z,101904.25
2018-12-24T16:41:36.200Z,101906.06
2018-12-24T16:44:02.977Z,101916.49
2018-12-24T16:46:29.737Z,101921.42
2018-12-24T16:48:56.497Z,101929.16
2018-12-24T16:51:23.325Z,101934.58
2018-12-24T16:53:50.101Z,101942.63
2018-12-24T16:56:16.853Z,101946.05
2018-12-24T16:58:43.629Z,101944.60
2018-12-24T17:01:10.367Z,101943.61
2018-12-24T17:03:37.134Z,101947.28
2018-12-24T17:06:03.904Z,101950.52
2018-12-24T17:08:30.660Z,101944.21
2018-12-24T17:10:57.453Z,101944.61
2018-12-24T17:13:24.248Z,101935.17
2018-12-24T17:15:50.959Z,101942.70
2018-12-24T17:18:17.744Z,101947.10
2018-12-24T17:20:44.504Z,101946.44
2018-12-24T17:23:11.284Z,101952.83
2018-12-24T17:25:38.064Z,101949.33
2018-12-24T17:28:04.825Z,101948.48
2018-12-24T17:30:31.581Z,101945.73
2018-12-24T17:32:58.356Z,101965.56
2018-12-24T17:35:25.097Z,101974.31
2018-12-24T17:37:51.864Z,101983.83
2018-12-24T17:40:18.635Z,101986.27
2018-12-24T17:42:45.449Z,101985.25
2018-12-24T17:45:12.227Z,101991.70
2018-12-24T17:47:38.957Z,101974.00
2018-12-24T17:50:06.010Z,101986.92
2018-12-24T17:52:32.777Z,101987.61
2018-12-24T17:54:59.584Z,102006.68
2018-12-24T17:57:26.352Z,102010.06
2018-12-24T17:59:53.114Z,102006.57
2018-12-24T18:02:19.864Z,102003.45
2018-12-24T18:04:46.642Z,102003.08
2018-12-24T18:07:13.397Z,102005.43
2018-12-24T18:09:40.180Z,102013.52
2018-12-24T18:12:06.949Z,102012.19
2018-12-24T18:14:33.816Z,102010.48
2018-12-24T18:17:00.588Z,102007.86
2018-12-24T18:19:27.355Z,102004.44
2018-12-24T18:21:54.124Z,102009.63
2018-12-24T18:24:20.876Z,102005.92
2018-12-24T18:26:47.676Z,102005.91
2018-12-24T18:29:14.450Z,102007.86
2018-12-24T18:31:41.220Z,102003.33
2018-12-24T18:34:07.980Z,102012.39
2018-12-24T18:36:34.765Z,102017.19
2018-12-24T18:39:01.600Z,102005.78
2018-12-24T18:41:28.393Z,102015.52
2018-12-24T18:43:55.136Z,102019.41
2018-12-24T18:46:21.912Z,102020.66
2018-12-24T18:48:48.660Z,102007.97
2018-12-24T18:51:15.736Z,102015.19
2018-12-24T18:53:42.500Z,102017.88
2018-12-24T18:56:09.295Z,102012.30
2018-12-24T18:58:36.042Z,102015.59
2018-12-24T19:01:02.814Z,102017.89
2018-12-24T19:03:29.572Z,102019.33
2018-12-24T19:05:56.399Z,102025.89
2018-12-24T19:08:23.140Z,102037.16
2018-12-24T19:10:49.928Z,102048.18
2018-12-24T19:13:16.681Z,102059.63
2018-12-24T19:15:45.497Z,102049.20
2018-12-24T19:18:12.305Z,102059.61
2018-12-24T19:20:39.072Z,102065.75
2018-12-24T19:23:05.840Z,102071.39
2018-12-24T19:25:32.604Z,102077.56
2018-12-24T19:27:59.355Z,102095.70
2018-12-24T19:30:26.121Z,102091.57
2018-12-24T19:32:52.866Z,102091.63
2018-12-24T19:35:19.633Z,102094.03
2018-12-24T19:37:46.421Z,102088.91
2018-12-24T19:40:13.181Z,102090.25
2018-12-24T19:42:39.941Z,102095.42
2018-12-24T19:45:06.702Z,102094.38
2018-12-24T19:47:33.492Z,102089.27
2018-12-24T19:50:00.259Z,102099.83
2018-12-24T19:52:27.029Z,102103.45
2018-12-24T19:54:53.794Z,102105.09
2018-12-24T19:57:20.569Z,102125.06
2018-12-24T19:59:47.314Z,102138.34
2018-12-24T20:02:14.092Z,102161.03
2018-12-24T20:04:40.831Z,102170.62
2018-12-24T20:07:07.635Z,102170.86
2018-12-24T20:09:34.369Z,102178.57
2018-12-24T20:12:03.547Z,102188.66
2018-12-24T20:14:30.307Z,102187.88
2018-12-24T20:16:57.072Z,102192.91
2018-12-24T20:19:23.824Z,102192.70
2018-12-24T20:21:50.612Z,102194.97
2018-12-24T20:24:17.361Z,102194.38
2018-12-24T20:26:44.133Z,102201.39
2018-12-24T20:29:10.889Z,102209.55
2018-12-24T20:31:37.669Z,102212.37
2018-12-24T20:34:04.452Z,102208.97
2018-12-24T20:36:31.230Z,102204.91
2018-12-24T20:38:58.017Z,102179.42
2018-12-24T20:41:24.857Z,102172.64
2018-12-24T20:43:51.564Z,102164.94
2018-12-24T20:46:18.332Z,102165.38
2018-12-24T20:48:45.092Z,102173.83
2018-12-24T20:51:16.166Z,102175.27
2018-12-24T20:53:38.877Z,102184.11
2018-12-24T20:56:05.624Z,102191.05
2018-12-24T20:58:32.572Z,102214.06
2018-12-24T21:00:59.320Z,102213.48
2018-12-24T21:03:26.097Z,102203.51
2018-12-24T21:05:52.871Z,102198.95
2018-12-24T21:08:19.626Z,102195.83
2018-12-24T21:10:46.377Z,102199.98
2018-12-24T21:13:13.174Z,102203.30
2018-12-24T21:15:39.939Z,102199.98
2018-12-24T21:18:14.889Z,102198.72
2018-12-24T21:20:33.464Z,102194.94
2018-12-24T21:23:00.235Z,102193.48
2018-12-24T21:25:27.107Z,102186.98
2018-12-24T21:27:53.908Z,102186.88
2018-12-24T21:30:20.653Z,102185.89
2018-12-24T21:32:47.429Z,102183.03
2018-12-24T21:35:14.189Z,102180.75
2018-12-24T21:37:40.984Z,102181.33
2018-12-24T21:40:07.748Z,102175.64
2018-12-24T21:42:34.527Z,102168.75
2018-12-24T21:45:01.293Z,102178.34
2018-12-24T21:47:28.061Z,102180.75
2018-12-24T21:49:54.816Z,102188.15
2018-12-24T21:52:21.565Z,102187.68
2018-12-24T21:54:48.305Z,102189.87
2018-12-24T21:57:15.071Z,102183.75
2018-12-24T21:59:41.820Z,102180.02
2018-12-24T22:02:08.660Z,102186.31
2018-12-24T22:04:35.421Z,102188.91
2018-12-24T22:07:02.193Z,102193.27
2018-12-24T22:09:28.956Z,102191.08
2018-12-24T22:11:55.737Z,102190.40
2018-12-24T22:14:22.500Z,102186.00
2018-12-24T22:16:49.361Z,102193.05
2018-12-24T22:19:16.137Z,102203.55
2018-12-24T22:21:42.892Z,102215.25
2018-12-24T22:24:09.657Z,102214.56
2018-12-24T22:26:36.408Z,102224.24
2018-12-24T22:29:03.186Z,102225.55
2018-12-24T22:31:30.109Z,102225.81
2018-12-24T22:33:56.885Z,102226.59
2018-12-24T22:36:23.648Z,102235.75
2018-12-24T22:38:50.453Z,102231.16
2018-12-24T22:41:17.234Z,102232.81
2018-12-24T22:43:44.017Z,102227.00
2018-12-24T22:46:10.791Z,102234.91
2018-12-24T22:48:40.883Z,102241.33
2018-12-24T22:51:04.345Z,102249.34
2018-12-24T22:53:31.137Z,102246.68
2018-12-24T22:55:57.925Z,102261.49
2018-12-24T22:58:24.733Z,102259.38
2018-12-24T23:00:51.536Z,102247.19
2018-12-24T23:03:18.337Z,102268.09
2018-12-24T23:05:45.128Z,102268.19
2018-12-24T23:08:12.027Z,102271.34
2018-12-24T23:10:38.917Z,102276.59
2018-12-24T23:13:05.700Z,102276.52
2018-12-24T23:15:32.476Z,102275.59
2018-12-24T23:17:59.293Z,102276.11
2018-12-24T23:20:26.074Z,102271.23
2018-12-24T23:22:52.904Z,102263.66
2018-12-24T23:27:39.185Z,102266.47
2018-12-24T23:30:06.509Z,102258.09
2018-12-24T23:32:33.293Z,102255.36
2018-12-24T23:35:00.149Z,102252.02
2018-12-24T23:37:26.884Z,102246.78
2018-12-24T23:39:53.653Z,102238.42
2018-12-24T23:42:20.427Z,102247.09
2018-12-24T23:44:47.220Z,102244.79
2018-12-24T23:47:13.973Z,102247.58
2018-12-24T23:49:40.773Z,102242.75
2018-12-24T23:52:07.533Z,102244.30
2018-12-24T23:54:34.356Z,102239.75
2018-12-24T23:57:01.108Z,102228.52
2018-12-24T23:59:27.888Z,102233.59
